createdAt,value
2023-05-14T00:00:23.809Z,10.20
2023-05-14T00:03:12.102Z,9.30
2023-05-14T00:05:40.463Z,9.00
2023-05-14T00:08:08.480Z,10.60
2023-05-14T00:10:36.618Z,10.20
2023-05-14T00:13:04.608Z,10.20
2023-05-14T00:15:34.318Z,9.80
2023-05-14T00:18:02.778Z,10.10
2023-05-14T00:20:31.289Z,10.20
2023-05-14T00:22:59.373Z,9.60
2023-05-14T00:25:27.637Z,9.20
2023-05-14T00:27:55.977Z,12.50
2023-05-14T00:32:53.079Z,11.70
2023-05-14T00:35:21.855Z,9.80
2023-05-14T00:37:49.835Z,9.70
2023-05-14T00:40:17.969Z,9.30
2023-05-14T00:42:46.380Z,6.90
2023-05-14T00:45:14.329Z,7.70
2023-05-14T00:47:42.525Z,8.70
2023-05-14T00:50:12.409Z,7.70
2023-05-14T00:52:40.906Z,7.90
2023-05-14T00:55:09.460Z,9.80
2023-05-14T00:57:37.738Z,9.00
2023-05-14T01:00:06.811Z,10.80
2023-05-14T01:02:35.087Z,11.30
2023-05-14T01:05:03.778Z,7.30
2023-05-14T01:07:43.803Z,9.00
2023-05-14T01:10:27.301Z,7.70
2023-05-14T01:13:10.382Z,11.90
2023-05-14T01:15:39.978Z,16.80
2023-05-14T01:18:10.702Z,13.90
2023-05-14T01:20:38.906Z,13.80
2023-05-14T01:23:06.965Z,12.90
2023-05-14T01:25:35.635Z,9.40
2023-05-14T01:28:20.198Z,13.90
2023-05-14T01:31:16.390Z,11.70
2023-05-14T01:33:44.885Z,15.50
2023-05-14T01:38:45.858Z,14.40
2023-05-14T01:41:15.792Z,16.10
2023-05-14T01:43:45.736Z,16.80
2023-05-14T01:46:13.814Z,14.00
2023-05-14T01:48:41.945Z,12.60
2023-05-14T01:51:10.095Z,15.00
2023-05-14T01:53:38.560Z,14.10
2023-05-14T01:56:07.005Z,14.60
2023-05-14T01:58:35.012Z,12.40
2023-05-14T02:01:03.235Z,11.30
2023-05-14T02:03:31.640Z,8.70
2023-05-14T02:05:59.986Z,8.00
2023-05-14T02:10:56.764Z,13.30
2023-05-14T02:13:26.545Z,7.90
2023-05-14T02:18:22.581Z,11.90
2023-05-14T02:20:50.619Z,11.20
2023-05-14T02:23:19.505Z,8.80
2023-05-14T02:25:49.384Z,6.80
2023-05-14T02:28:17.383Z,7.00
2023-05-14T02:30:45.640Z,9.40
2023-05-14T02:33:13.755Z,7.20
2023-05-14T02:35:41.759Z,9.90
2023-05-14T02:38:09.792Z,11.90
2023-05-14T02:40:37.894Z,11.80
2023-05-14T02:43:06.253Z,9.00
2023-05-14T02:45:34.220Z,6.70
2023-05-14T02:48:02.620Z,7.10
2023-05-14T02:50:32.054Z,8.10
2023-05-14T02:53:00.215Z,8.70
2023-05-14T02:55:28.246Z,9.30
2023-05-14T02:57:56.988Z,8.90
2023-05-14T03:00:25.240Z,6.60
2023-05-14T03:07:53.685Z,8.60
2023-05-14T03:10:22.029Z,8.30
2023-05-14T03:12:50.561Z,11.20
2023-05-14T03:15:18.736Z,7.60
2023-05-14T03:17:46.896Z,8.70
2023-05-14T03:20:15.261Z,6.70
2023-05-14T03:22:43.255Z,8.90
2023-05-14T03:25:11.298Z,6.50
2023-05-14T03:27:39.519Z,11.30
2023-05-14T03:30:08.626Z,6.20
2023-05-14T03:32:37.612Z,6.50
2023-05-14T03:35:06.481Z,6.50
2023-05-14T03:37:34.539Z,7.10
2023-05-14T03:40:03.134Z,4.00
2023-05-14T03:42:31.175Z,5.30
2023-05-14T03:44:59.232Z,6.90
2023-05-14T03:47:27.252Z,14.30
2023-05-14T03:49:55.485Z,15.50
2023-05-14T03:52:23.789Z,12.30
2023-05-14T03:54:52.076Z,10.90
2023-05-14T03:57:20.036Z,13.60
2023-05-14T03:59:48.206Z,16.00
2023-05-14T04:02:16.421Z,18.20
2023-05-14T04:04:44.739Z,21.20
2023-05-14T04:07:12.918Z,17.40
2023-05-14T04:09:41.109Z,12.90
2023-05-14T04:12:09.776Z,11.90
2023-05-14T04:14:37.901Z,40.30
2023-05-14T04:17:06.042Z,47.30
2023-05-14T04:19:34.090Z,33.30
2023-05-14T04:22:02.381Z,36.40
2023-05-14T04:24:30.791Z,28.00
2023-05-14T04:26:58.965Z,12.30
2023-05-14T04:29:27.462Z,10.00
2023-05-14T04:31:56.204Z,10.30
2023-05-14T04:34:24.354Z,7.20
2023-05-14T04:36:52.759Z,8.30
2023-05-14T04:39:21.001Z,5.90
2023-05-14T04:41:48.995Z,6.50
2023-05-14T04:44:17.508Z,7.60
2023-05-14T04:46:45.701Z,7.30
2023-05-14T04:49:13.779Z,8.30
2023-05-14T04:51:42.078Z,7.00
2023-05-14T04:54:10.496Z,5.90
2023-05-14T04:56:38.766Z,8.30
2023-05-14T04:59:07.180Z,7.20
2023-05-14T05:01:35.401Z,8.60
2023-05-14T05:04:03.600Z,8.20
2023-05-14T05:06:31.831Z,11.20
2023-05-14T05:09:01.985Z,11.60
2023-05-14T05:11:30.629Z,11.50
2023-05-14T05:13:58.689Z,10.90
2023-05-14T05:16:26.837Z,11.90
2023-05-14T05:18:55.085Z,11.90
2023-05-14T05:21:23.554Z,10.40
2023-05-14T05:23:51.559Z,6.70
2023-05-14T05:26:20.033Z,7.80
2023-05-14T05:28:48.301Z,6.50
2023-05-14T05:31:19.068Z,11.10
2023-05-14T05:33:48.406Z,7.80
2023-05-14T05:36:16.771Z,9.30
2023-05-14T05:38:44.763Z,8.00
2023-05-14T05:41:12.973Z,11.20
2023-05-14T05:43:41.027Z,5.60
2023-05-14T05:46:09.149Z,8.90
2023-05-14T05:48:37.201Z,6.30
2023-05-14T05:51:05.416Z,6.90
2023-05-14T05:53:33.438Z,9.10
2023-05-14T05:56:01.478Z,8.50
2023-05-14T05:58:29.837Z,7.60
2023-05-14T06:00:58.404Z,6.40
2023-05-14T06:03:27.223Z,6.80
2023-05-14T06:05:55.242Z,12.50
2023-05-14T06:08:23.339Z,8.60
2023-05-14T06:10:51.476Z,8.10
2023-05-14T06:13:19.764Z,8.10
2023-05-14T06:15:48.048Z,9.80
2023-05-14T06:18:16.092Z,6.00
2023-05-14T06:20:45.002Z,7.30
2023-05-14T06:23:13.152Z,7.60
2023-05-14T06:25:41.219Z,8.40
2023-05-14T06:28:09.313Z,7.30
2023-05-14T06:30:37.592Z,7.40
2023-05-14T06:33:05.747Z,9.10
2023-05-14T06:35:34.799Z,10.20
2023-05-14T06:38:02.897Z,7.50
2023-05-14T06:40:31.083Z,6.80
2023-05-14T06:42:59.172Z,6.70
2023-05-14T06:45:27.591Z,5.80
2023-05-14T06:47:55.733Z,7.40
2023-05-14T06:50:24.337Z,7.30
2023-05-14T06:55:20.724Z,6.50
2023-05-14T06:57:48.703Z,7.90
2023-05-14T07:00:17.534Z,7.90
2023-05-14T07:02:45.756Z,6.50
2023-05-14T07:05:14.096Z,5.80
2023-05-14T07:07:42.152Z,7.10
2023-05-14T07:10:10.892Z,5.90
2023-05-14T07:15:07.692Z,5.20
2023-05-14T07:17:36.217Z,7.20
2023-05-14T07:20:04.819Z,5.00
2023-05-14T07:22:32.791Z,5.40
2023-05-14T07:25:00.879Z,4.70
2023-05-14T07:27:28.942Z,8.10
2023-05-14T07:29:57.023Z,8.60
2023-05-14T07:32:25.549Z,6.10
2023-05-14T07:37:24.133Z,6.50
2023-05-14T07:39:53.590Z,5.50
2023-05-14T07:42:34.384Z,8.90
2023-05-14T07:45:05.592Z,6.30
2023-05-14T07:47:33.843Z,4.90
2023-05-14T07:50:02.248Z,6.10
2023-05-14T07:52:30.410Z,5.40
2023-05-14T07:54:58.693Z,9.00
2023-05-14T07:57:27.219Z,5.30
2023-05-14T07:59:57.204Z,5.60
2023-05-14T08:02:25.523Z,7.40
2023-05-14T08:04:54.104Z,6.90
2023-05-14T08:07:22.246Z,6.00
2023-05-14T08:09:50.696Z,5.40
2023-05-14T08:12:18.800Z,6.00
2023-05-14T08:14:46.919Z,6.70
2023-05-14T08:17:15.132Z,6.20
2023-05-14T08:19:43.795Z,5.10
2023-05-14T08:22:11.792Z,5.40
2023-05-14T08:24:39.801Z,4.10
2023-05-14T08:27:07.982Z,5.10
2023-05-14T08:32:12.128Z,5.60
2023-05-14T08:34:47.818Z,4.20
2023-05-14T08:37:15.906Z,4.90
2023-05-14T08:39:44.157Z,4.90
2023-05-14T08:42:13.928Z,3.80
2023-05-14T08:44:51.927Z,4.20
2023-05-14T08:47:24.150Z,7.10
2023-05-14T08:50:04.586Z,4.60
2023-05-14T08:52:34.406Z,6.40
2023-05-14T08:55:06.644Z,5.60
2023-05-14T08:57:35.945Z,4.60
2023-05-14T09:00:13.473Z,6.10
2023-05-14T09:02:43.278Z,10.30
2023-05-14T09:05:12.591Z,6.60
2023-05-14T09:07:41.572Z,4.50
2023-05-14T09:10:10.808Z,5.50
2023-05-14T09:12:39.071Z,6.00
2023-05-14T09:15:07.577Z,4.60
2023-05-14T09:20:04.600Z,7.20
2023-05-14T09:22:34.497Z,4.30
2023-05-14T09:25:09.547Z,3.90
2023-05-14T09:27:38.260Z,5.20
2023-05-14T09:32:40.575Z,4.60
2023-05-14T09:35:23.085Z,4.40
2023-05-14T09:37:53.953Z,5.10
2023-05-14T09:40:24.676Z,4.20
2023-05-14T09:42:53.044Z,5.30
2023-05-14T09:45:21.373Z,6.00
2023-05-14T09:47:49.608Z,4.70
2023-05-14T09:50:17.720Z,4.60
2023-05-14T09:52:46.052Z,5.80
2023-05-14T09:55:15.022Z,4.90
2023-05-14T09:57:43.187Z,4.40
2023-05-14T10:00:12.872Z,5.60
2023-05-14T10:02:44.304Z,4.30
2023-05-14T10:05:13.453Z,6.90
2023-05-14T10:07:48.377Z,5.30
2023-05-14T10:10:19.839Z,6.90
2023-05-14T10:12:58.653Z,6.30
2023-05-14T10:15:51.381Z,8.80
2023-05-14T10:18:23.700Z,4.50
2023-05-14T10:21:05.845Z,9.60
2023-05-14T10:23:38.065Z,7.30
2023-05-14T10:26:08.124Z,4.50
2023-05-14T10:28:36.794Z,4.90
2023-05-14T10:31:05.048Z,5.80
2023-05-14T10:33:47.469Z,6.00
2023-05-14T10:36:15.815Z,5.00
2023-05-14T10:38:43.871Z,7.90
2023-05-14T10:41:16.696Z,8.00
2023-05-14T10:43:44.983Z,5.50
2023-05-14T10:46:14.261Z,6.40
2023-05-14T10:48:43.742Z,7.10
2023-05-14T10:51:12.821Z,5.60
2023-05-14T10:53:43.229Z,6.40
2023-05-14T10:56:14.485Z,5.70
2023-05-14T10:58:44.899Z,7.20
2023-05-14T11:01:13.919Z,4.80
2023-05-14T11:03:46.908Z,8.90
2023-05-14T11:06:16.107Z,6.40
2023-05-14T11:08:44.833Z,7.00
2023-05-14T11:11:13.206Z,5.30
2023-05-14T11:13:41.569Z,4.60
2023-05-14T11:18:42.036Z,4.70
2023-05-14T11:21:10.400Z,5.70
2023-05-14T11:23:38.561Z,5.20
2023-05-14T11:26:07.405Z,6.80
2023-05-14T11:28:35.706Z,6.20
2023-05-14T11:31:05.723Z,6.10
2023-05-14T11:33:33.788Z,3.70
2023-05-14T11:36:02.156Z,6.20
2023-05-14T11:38:30.159Z,8.80
2023-05-14T11:40:59.715Z,5.80
2023-05-14T11:43:29.582Z,5.10
2023-05-14T11:45:57.949Z,5.70
2023-05-14T11:48:26.080Z,4.60
2023-05-14T11:50:54.073Z,5.40
2023-05-14T11:53:27.448Z,4.90
2023-05-14T11:55:57.957Z,10.20
2023-05-14T11:58:26.540Z,5.10
2023-05-14T12:00:57.092Z,7.00
2023-05-14T12:03:26.738Z,5.50
2023-05-14T12:06:07.241Z,6.00
2023-05-14T12:08:35.272Z,6.10
2023-05-14T12:11:03.693Z,4.60
2023-05-14T12:13:33.112Z,5.70
2023-05-14T12:16:02.767Z,4.80
2023-05-14T12:18:32.868Z,4.90
2023-05-14T12:21:05.295Z,4.90
2023-05-14T12:23:34.124Z,4.80
2023-05-14T12:26:07.009Z,6.20
2023-05-14T12:28:38.902Z,5.40
2023-05-14T12:31:07.047Z,8.70
2023-05-14T12:33:35.113Z,5.40
2023-05-14T12:38:34.299Z,6.40
2023-05-14T12:41:02.337Z,5.70
2023-05-14T12:43:32.239Z,6.80
2023-05-14T12:46:00.337Z,6.10
2023-05-14T12:48:28.396Z,6.50
2023-05-14T12:50:56.364Z,6.40
2023-05-14T12:53:24.416Z,7.00
2023-05-14T12:55:53.086Z,8.30
2023-05-14T12:58:21.100Z,7.80
2023-05-14T13:00:49.184Z,7.20
2023-05-14T13:03:17.396Z,7.20
2023-05-14T13:05:45.490Z,8.10
2023-05-14T13:08:17.879Z,6.90
2023-05-14T13:10:46.064Z,7.70
2023-05-14T13:13:15.851Z,8.90
2023-05-14T13:15:46.804Z,7.30
2023-05-14T13:18:15.376Z,5.80
2023-05-14T13:23:11.719Z,11.40
2023-05-14T13:25:40.061Z,11.10
2023-05-14T13:28:08.890Z,9.90
2023-05-14T13:30:36.911Z,8.50
2023-05-14T13:33:05.861Z,14.00
2023-05-14T13:35:34.807Z,8.20
2023-05-14T13:38:03.111Z,11.40
2023-05-14T13:40:31.329Z,10.10
2023-05-14T13:42:59.354Z,8.00
2023-05-14T13:45:27.500Z,11.10
2023-05-14T13:47:56.781Z,6.60
2023-05-14T13:50:24.874Z,10.30
2023-05-14T13:52:52.867Z,7.50
2023-05-14T13:55:20.937Z,8.20
2023-05-14T13:57:49.142Z,7.70
2023-05-14T14:00:17.886Z,7.90
2023-05-14T14:05:14.145Z,9.30
2023-05-14T14:07:42.215Z,7.70
2023-05-14T14:10:10.835Z,6.40
2023-05-14T14:12:38.862Z,5.70
2023-05-14T14:15:07.868Z,7.40
2023-05-14T14:17:36.873Z,10.00
2023-05-14T14:20:06.162Z,7.80
2023-05-14T14:22:34.448Z,9.20
2023-05-14T14:25:03.085Z,9.80
2023-05-14T14:27:32.340Z,7.40
2023-05-14T14:30:00.679Z,7.50
2023-05-14T14:32:29.434Z,8.60
2023-05-14T14:34:57.482Z,11.30
2023-05-14T14:37:25.590Z,8.80
2023-05-14T14:39:53.826Z,7.20
2023-05-14T14:42:21.992Z,13.10
2023-05-14T14:44:50.121Z,12.50
2023-05-14T14:47:18.257Z,9.00
2023-05-14T14:49:46.435Z,13.30
2023-05-14T14:52:14.486Z,8.00
2023-05-14T14:54:42.511Z,14.20
2023-05-14T14:57:10.820Z,8.70
2023-05-14T14:59:38.862Z,8.40
2023-05-14T15:02:09.067Z,11.50
2023-05-14T15:04:38.781Z,9.60
2023-05-14T15:07:06.994Z,36.50
2023-05-14T15:09:35.127Z,12.70
2023-05-14T15:12:03.254Z,8.90
2023-05-14T15:14:31.271Z,10.50
2023-05-14T15:16:59.327Z,18.70
2023-05-14T15:19:29.632Z,11.70
2023-05-14T15:21:57.852Z,26.00
2023-05-14T15:24:26.341Z,20.40
2023-05-14T15:26:54.430Z,12.30
2023-05-14T15:29:22.437Z,11.20
2023-05-14T15:31:50.878Z,11.90
2023-05-14T15:34:19.003Z,14.00
2023-05-14T15:36:47.152Z,14.10
2023-05-14T15:39:15.367Z,13.20
2023-05-14T15:41:43.430Z,19.20
2023-05-14T15:44:11.462Z,13.30
2023-05-14T15:46:39.754Z,12.60
2023-05-14T15:49:07.858Z,21.20
2023-05-14T15:51:35.987Z,23.50
2023-05-14T15:54:04.195Z,10.30
2023-05-14T15:56:32.476Z,12.70
2023-05-14T15:59:00.652Z,13.80
2023-05-14T16:01:28.619Z,12.30
2023-05-14T16:03:56.734Z,6.80
2023-05-14T16:06:26.073Z,13.50
2023-05-14T16:08:54.650Z,11.40
2023-05-14T16:11:22.705Z,13.40
2023-05-14T16:13:50.902Z,10.10
2023-05-14T16:16:20.869Z,8.00
2023-05-14T16:18:49.494Z,9.60
2023-05-14T16:21:17.637Z,7.70
2023-05-14T16:23:46.469Z,10.60
2023-05-14T16:26:14.549Z,9.50
2023-05-14T16:28:42.851Z,8.90
2023-05-14T16:31:11.128Z,12.60
2023-05-14T16:33:39.522Z,7.30
2023-05-14T16:36:07.715Z,11.20
2023-05-14T16:38:41.446Z,7.80
2023-05-14T16:41:16.388Z,9.50
2023-05-14T16:43:45.611Z,5.70
2023-05-14T16:46:14.016Z,9.30
2023-05-14T16:48:43.507Z,7.00
2023-05-14T16:51:13.115Z,11.70
2023-05-14T16:53:41.521Z,7.60
2023-05-14T16:56:09.608Z,9.20
2023-05-14T16:58:37.941Z,8.60
2023-05-14T17:01:08.728Z,11.30
2023-05-14T17:03:37.817Z,7.90
2023-05-14T17:06:06.605Z,8.90
2023-05-14T17:08:35.812Z,6.70
2023-05-14T17:11:05.976Z,12.80
2023-05-14T17:13:33.704Z,11.10
2023-05-14T17:16:16.490Z,13.70
2023-05-14T17:18:43.431Z,7.70
2023-05-14T17:21:11.813Z,8.50
2023-05-14T17:23:39.904Z,7.20
2023-05-14T17:26:08.394Z,11.20
2023-05-14T17:28:36.432Z,9.10
2023-05-14T17:31:04.506Z,8.70
2023-05-14T17:33:32.694Z,17.90
2023-05-14T17:36:00.700Z,13.40
2023-05-14T17:38:28.886Z,16.80
2023-05-14T17:40:57.156Z,12.90
2023-05-14T17:43:25.169Z,11.10
2023-05-14T17:45:54.818Z,10.10
2023-05-14T17:48:24.207Z,11.40
2023-05-14T17:50:52.488Z,11.70
2023-05-14T17:53:20.589Z,9.00
2023-05-14T17:55:48.722Z,6.50
2023-05-14T17:58:16.760Z,12.60
2023-05-14T18:00:44.993Z,8.40
2023-05-14T18:03:14.426Z,12.60
2023-05-14T18:05:42.874Z,13.20
2023-05-14T18:08:10.965Z,15.90
2023-05-14T18:10:39.132Z,6.80
2023-05-14T18:13:07.132Z,13.30
2023-05-14T18:15:36.872Z,10.30
2023-05-14T18:18:05.496Z,7.70
2023-05-14T18:23:03.676Z,10.60
2023-05-14T18:25:32.229Z,7.10
2023-05-14T18:28:00.473Z,10.00
2023-05-14T18:30:28.546Z,11.70
2023-05-14T18:32:56.735Z,7.90
2023-05-14T18:35:24.921Z,9.40
2023-05-14T18:37:54.086Z,12.30
2023-05-14T18:40:22.301Z,8.50
2023-05-14T18:42:50.504Z,13.20
2023-05-14T18:45:18.514Z,20.20
2023-05-14T18:47:47.923Z,19.50
2023-05-14T18:50:16.079Z,19.00
2023-05-14T18:52:44.425Z,11.50
2023-05-14T18:55:12.834Z,7.50
2023-05-14T18:57:40.891Z,7.20
2023-05-14T19:00:09.937Z,8.10
2023-05-14T19:02:38.085Z,11.60
2023-05-14T19:05:06.957Z,9.30
2023-05-14T19:07:35.200Z,13.00
2023-05-14T19:10:03.925Z,12.30
2023-05-14T19:12:32.157Z,14.30
2023-05-14T19:15:00.822Z,21.30
2023-05-14T19:17:29.448Z,32.70
2023-05-14T19:22:25.586Z,10.40
2023-05-14T19:24:53.621Z,13.60
2023-05-14T19:27:21.675Z,15.50
2023-05-14T19:29:50.058Z,11.10
2023-05-14T19:32:18.169Z,10.40
2023-05-14T19:34:46.154Z,11.60
2023-05-14T19:37:14.320Z,9.60
2023-05-14T19:39:42.333Z,8.90
2023-05-14T19:42:10.451Z,12.30
2023-05-14T19:44:38.631Z,15.10
2023-05-14T19:47:07.662Z,11.00
2023-05-14T19:49:36.190Z,16.20
2023-05-14T19:52:04.904Z,16.90
2023-05-14T19:57:00.968Z,7.60
2023-05-14T19:59:29.912Z,10.20
2023-05-14T20:01:58.004Z,8.20
2023-05-14T20:04:26.276Z,8.90
2023-05-14T20:06:54.280Z,6.30
2023-05-14T20:09:22.966Z,7.60
2023-05-14T20:11:51.064Z,9.50
2023-05-14T20:14:19.145Z,8.50
2023-05-14T20:16:49.010Z,7.10
2023-05-14T20:19:17.393Z,5.80
2023-05-14T20:21:45.721Z,6.80
2023-05-14T20:24:13.695Z,11.30
2023-05-14T20:26:41.844Z,7.30
2023-05-14T20:29:11.464Z,12.50
2023-05-14T20:31:39.425Z,11.60
2023-05-14T20:34:07.531Z,8.20
2023-05-14T20:36:36.136Z,11.00
2023-05-14T20:39:06.237Z,6.30
2023-05-14T20:41:34.390Z,11.80
2023-05-14T20:44:02.338Z,7.80
2023-05-14T20:46:30.864Z,6.30
2023-05-14T20:51:29.097Z,9.60
2023-05-14T20:53:57.155Z,7.80
2023-05-14T20:56:26.492Z,8.20
2023-05-14T20:58:54.431Z,9.00
2023-05-14T21:01:22.469Z,6.30
2023-05-14T21:03:50.753Z,7.60
2023-05-14T21:06:19.141Z,7.90
2023-05-14T21:08:47.345Z,8.40
2023-05-14T21:11:15.633Z,7.80
2023-05-14T21:13:44.648Z,8.60
2023-05-14T21:16:13.264Z,9.80
2023-05-14T21:18:41.643Z,8.60
2023-05-14T21:21:09.720Z,7.70
2023-05-14T21:23:38.039Z,9.60
2023-05-14T21:26:06.202Z,8.40
2023-05-14T21:28:34.396Z,7.10
2023-05-14T21:31:02.593Z,13.00
2023-05-14T21:33:30.551Z,7.90
2023-05-14T21:35:59.018Z,8.50
2023-05-14T21:38:27.253Z,6.80
2023-05-14T21:40:55.509Z,9.50
2023-05-14T21:43:23.749Z,7.40
2023-05-14T21:45:51.854Z,7.80
2023-05-14T21:48:20.852Z,9.30
2023-05-14T21:50:49.141Z,9.00
2023-05-14T21:53:17.196Z,6.40
2023-05-14T21:55:45.281Z,6.30
2023-05-14T21:58:13.291Z,5.80
2023-05-14T22:00:41.484Z,8.40
2023-05-14T22:03:09.697Z,6.40
2023-05-14T22:05:38.085Z,7.30
2023-05-14T22:08:06.485Z,8.90
2023-05-14T22:10:35.230Z,5.70
2023-05-14T22:15:31.380Z,6.40
2023-05-14T22:17:59.634Z,8.20
2023-05-14T22:20:27.834Z,6.80
2023-05-14T22:22:55.870Z,5.90
2023-05-14T22:25:24.149Z,7.10
2023-05-14T22:30:21.308Z,6.20
2023-05-14T22:32:49.439Z,6.80
2023-05-14T22:35:17.697Z,5.00
2023-05-14T22:37:45.845Z,7.30
2023-05-14T22:40:14.601Z,7.60
2023-05-14T22:42:42.658Z,5.20
2023-05-14T22:45:11.294Z,7.90
2023-05-14T22:47:39.455Z,7.70
2023-05-14T22:50:11.749Z,9.20
2023-05-14T22:52:40.604Z,10.60
2023-05-14T22:57:37.074Z,8.80
2023-05-14T23:00:06.946Z,8.60
2023-05-14T23:02:34.968Z,6.60
2023-05-14T23:05:03.484Z,6.00
2023-05-14T23:07:31.575Z,7.20
2023-05-14T23:09:59.747Z,6.60
2023-05-14T23:12:27.724Z,7.60
2023-05-14T23:14:55.794Z,6.20
2023-05-14T23:17:23.973Z,11.50
2023-05-14T23:19:52.843Z,11.20
2023-05-14T23:22:21.236Z,11.10
2023-05-14T23:24:49.269Z,6.90
2023-05-14T23:27:17.642Z,5.50
2023-05-14T23:29:45.682Z,8.90
2023-05-14T23:32:13.818Z,6.10
2023-05-14T23:34:41.989Z,8.00
2023-05-14T23:37:10.290Z,5.30
2023-05-14T23:39:38.326Z,5.50
2023-05-14T23:42:06.564Z,7.40
2023-05-14T23:44:34.559Z,6.90
2023-05-14T23:47:03.058Z,6.10
2023-05-14T23:49:31.458Z,5.20
2023-05-14T23:51:59.541Z,6.00
2023-05-14T23:54:27.687Z,10.70
2023-05-14T23:56:56.040Z,4.70
2023-05-14T23:59:24.068Z,5.30
